Home > Products > Valid Products > TAF

000
FTUS44 KHUN 231720
TAFHSV
TAF
KHSV 231720Z 2318/2418 03009KT P6SM SKC
     FM240000 VRB02KT P6SM SKC
     FM241500 16009KT P6SM FEW250=



000
FTUS44 KHUN 231720
TAFMSL
TAF
KMSL 231720Z 2318/2418 07008KT P6SM SKC
     FM240000 VRB02KT P6SM SKC
     FM241500 15009KT P6SM FEW250=



000
FTUS44 KHUN 231120
TAFHSV
TAF
KHSV 231120Z 2312/2412 02003KT P6SM SKC
     FM231400 04009KT P6SM SKC
     FM240000 VRB02KT P6SM SKC=



000
FTUS44 KHUN 231120
TAFMSL
TAF
KMSL 231120Z 2312/2412 36003KT P6SM SKC
     FM231400 07008KT P6SM SKC
     FM240000 VRB02KT P6SM SKC=



000
FTUS44 KHUN 230520
TAFHSV
TAF
KHSV 230520Z 2306/2406 01005KT P6SM SKC
      TEMPO 2310/2312 VRB03KT 5SM BR
     FM231400 04008KT P6SM FEW250=



000
FTUS44 KHUN 230520
TAFMSL
TAF
KMSL 230520Z 2306/2406 01005KT P6SM SKC
      TEMPO 2310/2312 VRB03KT 5SM BR
     FM231400 04008KT P6SM FEW250=



000
FTUS44 KHUN 222340
TAFMSL
TAF
KMSL 222340Z 2300/2324 31005KT P6SM FEW040 SCT060
     FM230300 02007KT P6SM SKC
      TEMPO 2310/2312 VRB03KT 5SM BR
     FM231200 04007KT P6SM SCT250=



000
FTUS44 KHUN 222340
TAFHSV
TAF
KHSV 222340Z 2300/2324 31005KT P6SM FEW040 SCT060
     FM230300 02007KT P6SM SKC
      TEMPO 2310/2312 VRB03KT 5SM BR
     FM231200 04007KT P6SM SCT250=



000
FTUS44 KHUN 221721
TAFHSV
TAF
KHSV 221721Z 2218/2318 23007KT P6SM -RA SCT015 BKN060
      TEMPO 2219/2221 4SM -TSRA BKN025CB
     FM222100 33005KT P6SM BKN015
     FM230000 36007KT P6SM SCT015
     FM231000 36005KT 5SM BR SKC
     FM231200 01005KT P6SM SKC=



000
FTUS44 KHUN 221721
TAFMSL
TAF
KMSL 221721Z 2218/2318 28007KT P6SM -RA SCT015 BKN060
      TEMPO 2218/2220 4SM -TSRA BKN025CB
     FM222000 33005KT P6SM BKN015
     FM230000 35006KT P6SM SCT015
     FM230800 36003KT 3SM BR SKC
     FM231200 02005KT P6SM SKC=



000
FTUS44 KHUN 221423 AAA
TAFHSV
TAF AMD
KHSV 221423Z 2214/2312 25005KT P6SM VCSH FEW005 OVC035
      TEMPO 2214/2216 2SM -RA BR BKN009
     FM221800 30010KT P6SM VCSH OVC040
     FM230000 36007KT P6SM SKC
     FM231000 36005KT 5SM BR SKC=



000
FTUS44 KHUN 221418 AAA
TAFMSL
TAF AMD
KMSL 221418Z 2214/2312 26004KT P6SM VCSH BKN035
      TEMPO 2214/2216 2SM -RA BR BKN009 OVC015
     FM221600 31010KT P6SM VCSH OVC040
     FM230000 36006KT P6SM SKC
     FM230700 36003KT 3SM BR SKC=



000
FTUS44 KHUN 221156 CCA
TAFHSV
TAF COR
KHSV 221156Z 2212/2312 VRB03KT 5SM BR VCSH FEW027 OVC080
      TEMPO 2212/2214 2SM -SHRA BR BKN027 OVC050
     FM221400 25010KT P6SM VCSH OVC030
     FM221800 30010KT P6SM VCSH OVC040
     FM230000 36007KT P6SM SKC
     FM231000 36005KT 5SM BR SKC=



000
FTUS44 KHUN 221120
TAFMSL
TAF
KMSL 221120Z 2212/2312 VRB03KT 4SM BR VCSH SCT050 OVC070
      TEMPO 2212/2214 2SM -SHRA BR FEW005 BKN035 OVC050
     FM221400 26010KT P6SM VCSH OVC030
     FM221700 31010KT P6SM VCSH OVC040
     FM230000 36006KT P6SM SKC
     FM230700 36003KT 3SM BR SKC=



000
FTUS44 KHUN 221120
TAFHSV
TAF
KHSV 221120Z 2212/2312 VRB03KT 5SM BR VCSH FEW027 OVC080
      TEMPO 2212/2214 4SM -SHRA BR BKN027 OVC050
     FM221400 25010KT P6SM VCSH OVC030
     FM221800 30010KT P6SM VCSH OVC040
     FM230000 36007KT P6SM SKC
     FM231000 36005KT 5SM BR SKC=



000
FTUS44 KHUN 221048 AAB
TAFHSV
TAF AMD
KHSV 221048Z 2211/2306 VRB03KT 5SM BR VCSH FEW027 OVC080
      TEMPO 2211/2214 4SM -SHRA BR BKN027 OVC050
     FM221400 25010KT P6SM VCSH OVC030
     FM221800 30010KT P6SM VCSH OVC040
     FM230000 36010KT P6SM SCT050=



000
FTUS44 KHUN 221043 AAB
TAFMSL
TAF AMD
KMSL 221043Z 2211/2306 VRB03KT 4SM BR VCSH SCT050 OVC070
      TEMPO 2211/2214 2SM -SHRA BR FEW005 BKN035 OVC050
     FM221400 26010KT P6SM VCSH OVC030
     FM221700 31010KT P6SM VCSH OVC040
     FM222300 36010KT P6SM FEW050
     FM230100 36003KT P6SM SKC=



000
FTUS44 KHUN 220814 AAA
TAFMSL
TAF AMD
KMSL 220814Z 2208/2306 00000KT 5SM BR VCSH FEW050 SCT080 OVC100
     FM221200 25005KT P6SM VCSH OVC050
     FM221400 28010KT P6SM VCSH OVC030
     FM221700 31010KT P6SM VCSH OVC040
     FM222300 36010KT P6SM SCT050=



000
FTUS44 KHUN 220813 AAA
TAFHSV
TAF AMD
KHSV 220813Z 2208/2306 24004KT 6SM -RA BR VCSH BKN050 BKN080 OVC100
     FM221200 25005KT P6SM VCSH OVC050
     FM221500 27010KT P6SM VCSH OVC030
     FM221800 30010KT P6SM VCSH OVC040
     FM230000 36010KT P6SM SCT050=



000
FTUS44 KHUN 220520
TAFMSL
TAF
KMSL 220520Z 2206/2306 VRB03KT P6SM VCSH OVC070
     FM221100 25005KT 5SM -SHRA BR OVC050
     FM221400 28010KT 3SM SHRA BR OVC030
     FM221700 31010KT 5SM SHRA BR OVC040
      TEMPO 2217/2221 3SM -TSRA BR BKN025CB
     FM222100 35010KT P6SM VCSH BKN050
     FM222300 36010KT P6SM SCT050=



000
FTUS44 KHUN 220520
TAFHSV
TAF
KHSV 220520Z 2206/2306 VRB03KT P6SM VCSH OVC070
     FM221200 25010KT 5SM -SHRA BR OVC050
     FM221500 27010KT 3SM SHRA BR OVC030
     FM221800 30010KT 5SM SHRA BR OVC040
      TEMPO 2218/2222 3SM -TSRA BKN025CB
     FM222200 34010KT P6SM VCSH BKN050
     FM230000 36010KT P6SM SCT050=



000
FTUS44 KHUN 212320
TAFMSL
TAF
KMSL 212320Z 2200/2224 21005KT P6SM BKN070
     FM220400 22005KT P6SM VCSH BKN050
     FM221100 25005KT 5SM -SHRA BR OVC020
     FM221400 28010KT 3SM SHRA BR OVC030
     FM221700 31013G23KT 5SM SHRA BR OVC040
      TEMPO 2217/2221 3SM -TSRA BR BKN025CB
     FM222100 35010G20KT P6SM SCT050=



000
FTUS44 KHUN 212320
TAFHSV
TAF
KHSV 212320Z 2200/2224 20005KT P6SM BKN070
     FM220500 20005KT P6SM VCSH BKN050
     FM221200 23005KT 5SM -SHRA BR OVC020
     FM221500 27010KT 3SM SHRA BR OVC030
     FM221800 30013G23KT 5SM SHRA BR OVC040
      TEMPO 2218/2222 3SM -TSRA BKN025CB
     FM222200 34010G20KT P6SM VCSH BKN050=



000
FTUS44 KHUN 211730
TAFHSV
TAF
KHSV 211730Z 2118/2218 20005KT P6SM VCSH SCT050 SCT130 BKN250
     FM212200 21005KT P6SM SCT050 OVC200
     FM220100 23005KT P6SM VCSH OVC060
     FM220400 VRB03KT P6SM OVC050
     FM221200 21003KT 4SM -SHRA BR OVC025
     FM221600 26007KT 6SM -SHRA BR OVC015=



000
FTUS44 KHUN 211730
TAFMSL
TAF
KMSL 211730Z 2118/2218 23010KT P6SM SCT060 BKN120 OVC200
     FM212300 23005KT P6SM VCSH OVC070
     FM220500 VRB03KT P6SM -SHRA OVC050
     FM221200 26005KT 4SM -SHRA BR OVC015
     FM221500 30007KT P6SM VCSH OVC025=



000
FTUS44 KHUN 211120
TAFMSL
TAF
KMSL 211120Z 2112/2212 16005KT P6SM SCT150 SCT250
     FM211800 23010KT P6SM BKN120 OVC250
     FM220000 23005KT P6SM VCSH OVC070
     FM220500 VRB03KT P6SM -SHRA OVC050=



000
FTUS44 KHUN 211120
TAFHSV
TAF
KHSV 211120Z 2112/2212 16005KT P6SM SCT150 SCT250
     FM211900 23010KT P6SM BKN120 OVC250
     FM220100 23005KT P6SM VCSH OVC070
     FM220600 VRB03KT P6SM -SHRA OVC050=



000
FTUS44 KHUN 210520
TAFHSV
TAF
KHSV 210520Z 2106/2206 00000KT P6SM SCT250
     FM211400 18005KT P6SM BKN150
     FM211800 23010KT P6SM BKN120
     FM220000 23005KT P6SM OVC070
     FM220500 VRB03KT P6SM VCSH OVC050=



000
FTUS44 KHUN 210520
TAFMSL
TAF
KMSL 210520Z 2106/2206 00000KT P6SM SCT250
     FM211400 20005KT P6SM BKN150
     FM211800 23010KT P6SM BKN120
     FM220000 23005KT P6SM OVC070
     FM220500 VRB03KT P6SM VCSH OVC050=



000
FTUS44 KHUN 202326
TAFHSV
TAF
KHSV 202326Z 2100/2124 VRB03KT P6SM SCT250
     FM211400 18010KT P6SM BKN120
     FM211900 21010KT P6SM BKN050=



000
FTUS44 KHUN 202326
TAFMSL
TAF
KMSL 202326Z 2100/2124 VRB03KT P6SM SCT250
     FM211400 19010KT P6SM BKN120
     FM211900 23010KT P6SM BKN050=



    US Dept of Commerce
    National Oceanic and Atmospheric Administration
    National Weather Service
    1325 East West Highway
    Silver Spring, MD 20910
    Page Author: NWS Internet Services Team
Disclaimer
Information Quality
Credits
Glossary
Privacy Policy
Freedom of Information Act (FOIA)
About Us
Career Opportunities